createdAt,value
2022-11-09T00:01:59.801Z,2.60
2022-11-09T00:04:29.805Z,2.65
2022-11-09T00:06:58.787Z,2.67
2022-11-09T00:09:28.511Z,3.33
2022-11-09T00:12:05.027Z,3.03
2022-11-09T00:14:35.791Z,2.90
2022-11-09T00:17:04.623Z,3.10
2022-11-09T00:19:33.343Z,2.80
2022-11-09T00:22:15.333Z,2.90
2022-11-09T00:24:44.492Z,3.40
2022-11-09T00:27:17.601Z,2.45
2022-11-09T00:29:46.890Z,2.72
2022-11-09T00:32:16.223Z,2.60
2022-11-09T00:34:46.163Z,2.45
2022-11-09T00:37:15.596Z,3.10
2022-11-09T00:39:44.997Z,2.55
2022-11-09T00:42:18.339Z,2.78
2022-11-09T00:44:49.586Z,2.83
2022-11-09T00:47:18.879Z,2.45
2022-11-09T00:49:48.414Z,2.22
2022-11-09T00:52:18.536Z,2.15
2022-11-09T00:54:46.937Z,2.72
2022-11-09T00:57:19.557Z,3.10
2022-11-09T00:59:48.503Z,2.45
2022-11-09T01:02:19.592Z,2.72
2022-11-09T01:04:52.029Z,2.70
2022-11-09T01:07:21.622Z,2.30
2022-11-09T01:09:51.069Z,2.60
2022-11-09T01:12:21.970Z,3.13
2022-11-09T01:14:53.215Z,3.20
2022-11-09T01:17:22.567Z,2.88
2022-11-09T01:19:51.666Z,2.58
2022-11-09T01:22:29.923Z,3.20
2022-11-09T01:24:59.634Z,2.67
2022-11-09T01:27:30.107Z,2.75
2022-11-09T01:30:00.087Z,2.97
2022-11-09T01:32:29.841Z,2.80
2022-11-09T01:34:59.080Z,3.17
2022-11-09T01:37:29.558Z,2.40
2022-11-09T01:39:58.465Z,2.60
2022-11-09T01:42:30.709Z,2.65
2022-11-09T01:45:33.512Z,2.80
2022-11-09T01:48:10.763Z,2.30
2022-11-09T01:50:47.560Z,2.75
2022-11-09T01:53:23.296Z,2.63
2022-11-09T01:55:57.956Z,2.97
2022-11-09T01:58:32.823Z,2.45
2022-11-09T02:01:11.427Z,2.55
2022-11-09T02:03:45.992Z,2.60
2022-11-09T02:06:18.495Z,2.65
2022-11-09T02:08:49.409Z,2.33
2022-11-09T02:11:21.981Z,2.90
2022-11-09T02:14:04.214Z,2.50
2022-11-09T02:16:34.512Z,3.08
2022-11-09T02:19:03.548Z,3.15
2022-11-09T02:21:34.458Z,2.55
2022-11-09T02:24:03.907Z,2.50
2022-11-09T02:26:37.232Z,2.65
2022-11-09T02:29:10.537Z,3.03
2022-11-09T02:31:44.878Z,2.42
2022-11-09T02:34:18.331Z,2.63
2022-11-09T02:36:52.284Z,3.20
2022-11-09T02:39:26.562Z,3.33
2022-11-09T02:42:03.131Z,2.70
2022-11-09T02:44:42.531Z,2.92
2022-11-09T02:47:11.587Z,3.00
2022-11-09T02:49:41.289Z,2.55
2022-11-09T02:52:15.957Z,2.30
2022-11-09T02:54:44.679Z,2.50
2022-11-09T02:57:14.394Z,2.38
2022-11-09T02:59:43.750Z,3.25
2022-11-09T03:02:13.729Z,2.55
2022-11-09T03:04:43.646Z,2.70
2022-11-09T03:07:14.332Z,2.88
2022-11-09T03:09:48.624Z,3.10
2022-11-09T03:12:39.126Z,2.60
2022-11-09T03:15:13.753Z,3.33
2022-11-09T03:17:44.375Z,3.00
2022-11-09T03:20:13.441Z,2.65
2022-11-09T03:22:43.435Z,2.53
2022-11-09T03:25:12.169Z,2.83
2022-11-09T03:27:41.145Z,3.33
2022-11-09T03:30:12.766Z,2.65
2022-11-09T03:32:41.501Z,2.22
2022-11-09T03:35:11.159Z,2.72
2022-11-09T03:37:45.617Z,3.13
2022-11-09T03:40:15.375Z,3.53
2022-11-09T03:42:48.458Z,3.05
2022-11-09T03:45:18.903Z,3.53
2022-11-09T03:47:49.216Z,2.33
2022-11-09T03:50:19.141Z,2.58
2022-11-09T03:52:50.792Z,2.85
2022-11-09T03:55:22.448Z,3.15
2022-11-09T03:57:53.675Z,2.50
2022-11-09T04:00:25.347Z,2.80
2022-11-09T04:02:56.269Z,2.47
2022-11-09T04:05:29.205Z,3.03
2022-11-09T04:08:01.767Z,3.22
2022-11-09T04:10:32.568Z,2.97
2022-11-09T04:13:02.919Z,2.85
2022-11-09T04:15:31.681Z,2.83
2022-11-09T04:18:04.073Z,2.58
2022-11-09T04:20:35.729Z,2.97
2022-11-09T04:23:08.577Z,2.53
2022-11-09T04:25:39.332Z,2.75
2022-11-09T04:28:12.617Z,2.72
2022-11-09T04:30:43.752Z,2.92
2022-11-09T04:33:13.601Z,2.53
2022-11-09T04:35:44.541Z,2.30
2022-11-09T04:38:16.274Z,2.92
2022-11-09T04:40:45.366Z,2.42
2022-11-09T04:43:16.014Z,2.55
2022-11-09T04:45:47.120Z,3.15
2022-11-09T04:48:15.836Z,2.55
2022-11-09T04:50:44.693Z,2.78
2022-11-09T04:53:17.208Z,2.95
2022-11-09T04:55:46.506Z,2.75
2022-11-09T04:58:22.434Z,2.45
2022-11-09T05:00:54.917Z,2.72
2022-11-09T05:03:24.072Z,3.05
2022-11-09T05:05:53.255Z,2.40
2022-11-09T05:08:27.275Z,3.00
2022-11-09T05:10:59.494Z,2.75
2022-11-09T05:13:30.830Z,2.72
2022-11-09T05:16:04.446Z,2.63
2022-11-09T05:18:35.367Z,2.83
2022-11-09T05:21:06.196Z,2.42
2022-11-09T05:23:54.451Z,3.05
2022-11-09T05:26:25.428Z,2.75
2022-11-09T05:28:55.359Z,2.58
2022-11-09T05:31:24.931Z,2.70
2022-11-09T05:33:54.808Z,2.50
2022-11-09T05:36:24.628Z,2.10
2022-11-09T05:38:55.264Z,2.35
2022-11-09T05:41:25.480Z,2.45
2022-11-09T05:43:54.871Z,2.80
2022-11-09T05:46:25.726Z,3.33
2022-11-09T05:48:56.624Z,2.55
2022-11-09T05:51:27.493Z,2.00
2022-11-09T05:53:58.666Z,2.80
2022-11-09T06:02:03.082Z,2.80
2022-11-09T06:07:38.742Z,2.85
2022-11-09T06:10:12.442Z,2.65
2022-11-09T06:12:46.891Z,3.30
2022-11-09T06:15:16.704Z,2.97
2022-11-09T06:17:46.598Z,2.63
2022-11-09T06:20:15.900Z,3.47
2022-11-09T06:22:44.370Z,3.03
2022-11-09T06:25:15.720Z,2.95
2022-11-09T06:27:47.218Z,2.75
2022-11-09T06:30:19.551Z,2.90
2022-11-09T06:32:49.219Z,2.70
2022-11-09T06:35:20.049Z,3.13
2022-11-09T06:37:50.819Z,3.10
2022-11-09T06:40:23.875Z,3.33
2022-11-09T06:42:52.923Z,4.32
2022-11-09T06:45:24.412Z,2.90
2022-11-09T06:47:58.763Z,2.55
2022-11-09T06:50:29.760Z,3.80
2022-11-09T06:53:00.076Z,2.80
2022-11-09T06:55:33.460Z,3.47
2022-11-09T06:58:07.126Z,3.22
2022-11-09T07:00:36.851Z,3.65
2022-11-09T07:03:07.254Z,2.90
2022-11-09T07:05:41.955Z,3.60
2022-11-09T07:08:11.741Z,3.17
2022-11-09T07:10:46.163Z,2.90
2022-11-09T07:13:29.957Z,2.67
2022-11-09T07:15:59.964Z,3.70
2022-11-09T07:18:29.710Z,3.35
2022-11-09T07:21:00.468Z,3.80
2022-11-09T07:23:30.119Z,3.17
2022-11-09T07:26:02.693Z,3.10
2022-11-09T07:28:31.725Z,3.30
2022-11-09T07:31:01.630Z,3.03
2022-11-09T07:33:33.417Z,3.35
2022-11-09T07:36:04.266Z,3.38
2022-11-09T07:38:33.658Z,2.80
2022-11-09T07:41:09.873Z,3.60
2022-11-09T07:43:39.291Z,3.00
2022-11-09T07:46:08.678Z,2.92
2022-11-09T07:48:37.620Z,2.97
2022-11-09T07:51:07.396Z,2.90
2022-11-09T07:53:36.041Z,3.13
2022-11-09T07:56:06.731Z,2.95
2022-11-09T07:58:36.936Z,3.30
2022-11-09T08:01:10.699Z,3.22
2022-11-09T08:03:40.578Z,3.28
2022-11-09T08:06:11.996Z,3.08
2022-11-09T08:08:45.060Z,3.22
2022-11-09T08:11:16.958Z,2.72
2022-11-09T08:13:46.108Z,2.72
2022-11-09T08:16:16.014Z,2.78
2022-11-09T08:18:46.689Z,4.28
2022-11-09T08:21:16.506Z,3.65
2022-11-09T08:23:45.578Z,4.75
2022-11-09T08:26:17.895Z,4.45
2022-11-09T08:28:50.911Z,3.90
2022-11-09T08:31:29.157Z,4.10
2022-11-09T08:33:59.335Z,4.13
2022-11-09T08:36:30.073Z,3.20
2022-11-09T08:42:03.699Z,3.40
2022-11-09T08:44:33.934Z,3.67
2022-11-09T08:47:04.805Z,3.28
2022-11-09T08:49:35.589Z,2.90
2022-11-09T08:52:08.482Z,3.45
2022-11-09T08:54:55.496Z,3.80
2022-11-09T09:00:19.533Z,4.43
2022-11-09T09:11:21.588Z,4.15
2022-11-09T09:13:57.204Z,3.10
2022-11-09T09:16:27.588Z,3.78
2022-11-09T09:18:58.800Z,4.57
2022-11-09T09:21:32.744Z,4.40
2022-11-09T09:24:01.995Z,4.40
2022-11-09T09:26:34.605Z,4.13
2022-11-09T09:29:06.317Z,4.25
2022-11-09T09:31:43.169Z,3.75
2022-11-09T09:34:14.589Z,3.67
2022-11-09T09:36:48.072Z,3.35
2022-11-09T09:39:18.336Z,3.83
2022-11-09T09:41:54.031Z,3.45
2022-11-09T09:44:46.160Z,3.67
2022-11-09T09:47:24.379Z,2.83
2022-11-09T09:50:08.045Z,3.58
2022-11-09T09:55:37.593Z,3.42
2022-11-09T10:03:59.068Z,3.58
2022-11-09T10:06:58.068Z,3.95
2022-11-09T10:09:56.033Z,4.05
2022-11-09T10:12:37.094Z,3.10
2022-11-09T10:15:17.143Z,3.45
2022-11-09T10:18:07.941Z,3.50
2022-11-09T10:23:51.268Z,3.50
2022-11-09T10:26:25.242Z,3.90
2022-11-09T10:29:19.491Z,4.20
2022-11-09T10:31:51.155Z,4.07
2022-11-09T10:34:27.591Z,3.03
2022-11-09T10:37:07.717Z,3.05
2022-11-09T10:42:37.410Z,3.08
2022-11-09T10:45:17.155Z,2.80
2022-11-09T10:47:49.924Z,3.03
2022-11-09T10:50:29.401Z,2.90
2022-11-09T10:53:14.854Z,3.22
2022-11-09T10:55:54.749Z,3.75
2022-11-09T10:58:34.060Z,3.28
2022-11-09T11:01:06.835Z,2.60
2022-11-09T11:03:38.936Z,2.60
2022-11-09T11:06:18.109Z,2.80
2022-11-09T11:08:48.994Z,2.30
2022-11-09T11:11:39.454Z,2.55
2022-11-09T11:14:21.651Z,2.47
2022-11-09T11:16:54.310Z,3.08
2022-11-09T11:19:38.167Z,2.67
2022-11-09T11:22:27.535Z,2.90
2022-11-09T11:24:59.218Z,2.40
2022-11-09T11:27:38.090Z,2.30
2022-11-09T11:30:14.225Z,2.00
2022-11-09T11:32:49.901Z,2.25
2022-11-09T11:35:36.072Z,2.40
2022-11-09T11:38:23.808Z,2.13
2022-11-09T11:41:06.056Z,2.33
2022-11-09T11:43:46.434Z,2.58
2022-11-09T11:46:24.496Z,2.33
2022-11-09T11:49:31.517Z,3.30
2022-11-09T11:52:12.065Z,2.50
2022-11-09T11:54:57.267Z,2.10
2022-11-09T11:57:39.074Z,2.20
2022-11-09T12:00:15.240Z,2.58
2022-11-09T12:03:24.165Z,2.15
2022-11-09T12:06:12.438Z,2.45
2022-11-09T12:09:13.441Z,2.05
2022-11-09T12:12:01.184Z,1.88
2022-11-09T12:14:42.487Z,2.13
2022-11-09T12:17:24.264Z,1.95
2022-11-09T12:20:11.405Z,1.48
2022-11-09T12:22:59.553Z,1.60
2022-11-09T12:25:37.906Z,2.10
2022-11-09T12:28:31.067Z,1.67
2022-11-09T12:31:14.054Z,1.60
2022-11-09T12:33:50.322Z,1.23
2022-11-09T12:36:25.340Z,1.60
2022-11-09T12:39:03.821Z,1.75
2022-11-09T12:41:38.431Z,1.02
2022-11-09T12:44:18.162Z,1.23
2022-11-09T12:46:55.679Z,1.58
2022-11-09T12:49:37.285Z,1.48
2022-11-09T12:52:09.311Z,2.03
2022-11-09T12:54:44.448Z,1.40
2022-11-09T12:57:18.077Z,1.70
2022-11-09T12:59:51.379Z,1.80
2022-11-09T13:02:32.108Z,1.90
2022-11-09T13:05:03.664Z,2.00
2022-11-09T13:07:49.834Z,1.92
2022-11-09T13:10:34.543Z,1.83
2022-11-09T13:13:25.182Z,2.13
2022-11-09T13:16:32.472Z,1.98
2022-11-09T13:19:04.311Z,2.33
2022-11-09T13:21:44.607Z,2.10
2022-11-09T13:24:56.395Z,1.75
2022-11-09T13:27:44.675Z,2.42
2022-11-09T13:30:44.730Z,1.77
2022-11-09T13:33:25.156Z,2.63
2022-11-09T13:36:18.871Z,2.05
2022-11-09T13:39:26.443Z,2.05
2022-11-09T13:42:01.151Z,1.98
2022-11-09T13:44:35.768Z,2.45
2022-11-09T13:47:07.334Z,1.50
2022-11-09T13:49:50.605Z,1.80
2022-11-09T13:52:50.740Z,2.40
2022-11-09T13:55:36.824Z,2.42
2022-11-09T13:58:15.355Z,1.83
2022-11-09T14:00:48.584Z,1.60
2022-11-09T14:03:25.384Z,1.90
2022-11-09T14:05:59.346Z,1.70
2022-11-09T14:08:37.543Z,1.50
2022-11-09T14:11:40.238Z,1.83
2022-11-09T14:14:48.899Z,1.40
2022-11-09T14:17:23.946Z,1.58
2022-11-09T14:20:11.536Z,1.70
2022-11-09T14:22:44.910Z,1.95
2022-11-09T14:25:18.576Z,1.80
2022-11-09T14:27:59.122Z,1.55
2022-11-09T14:30:30.770Z,1.50
2022-11-09T14:33:00.697Z,1.95
2022-11-09T14:35:32.675Z,2.10
2022-11-09T14:38:19.147Z,2.10
2022-11-09T14:40:50.015Z,2.28
2022-11-09T14:43:28.833Z,1.75
2022-11-09T14:46:06.326Z,2.00
2022-11-09T14:48:40.855Z,1.90
2022-11-09T14:51:14.689Z,2.35
2022-11-09T14:53:46.660Z,2.65
2022-11-09T14:56:21.238Z,2.15
2022-11-09T14:58:51.450Z,1.90
2022-11-09T15:01:25.210Z,1.67
2022-11-09T15:04:17.681Z,1.73
2022-11-09T15:06:50.088Z,1.98
2022-11-09T15:09:23.606Z,1.98
2022-11-09T15:11:53.309Z,1.63
2022-11-09T15:14:31.397Z,1.83
2022-11-09T15:17:15.054Z,1.80
2022-11-09T15:19:54.053Z,1.63
2022-11-09T15:22:49.017Z,1.95
2022-11-09T15:25:31.308Z,1.95
2022-11-09T15:28:19.716Z,1.42
2022-11-09T15:31:06.031Z,1.90
2022-11-09T15:33:52.416Z,2.25
2022-11-09T15:36:31.990Z,2.28
2022-11-09T15:39:10.476Z,2.88
2022-11-09T15:41:40.916Z,2.40
2022-11-09T15:44:10.820Z,2.00
2022-11-09T15:46:46.217Z,2.38
2022-11-09T15:51:56.255Z,2.00
2022-11-09T15:57:52.649Z,2.20
2022-11-09T16:00:55.293Z,2.30
2022-11-09T16:03:25.728Z,3.88
2022-11-09T16:06:02.049Z,2.53
2022-11-09T16:08:34.123Z,3.40
2022-11-09T16:11:06.224Z,2.70
2022-11-09T16:16:31.313Z,2.45
2022-11-09T16:19:00.686Z,2.50
2022-11-09T16:21:33.179Z,2.83
2022-11-09T16:24:02.697Z,2.25
2022-11-09T16:26:32.051Z,2.55
2022-11-09T16:29:02.683Z,2.30
2022-11-09T16:31:50.901Z,2.25
2022-11-09T16:37:45.884Z,2.70
2022-11-09T16:40:19.632Z,2.92
2022-11-09T16:42:49.604Z,2.55
2022-11-09T16:45:33.025Z,2.90
2022-11-09T16:48:06.569Z,2.33
2022-11-09T16:50:40.972Z,2.65
2022-11-09T16:53:14.204Z,2.80
2022-11-09T16:55:53.405Z,2.67
2022-11-09T16:58:22.822Z,2.92
2022-11-09T17:01:12.337Z,2.60
2022-11-09T17:03:42.005Z,2.28
2022-11-09T17:06:14.577Z,2.20
2022-11-09T17:08:45.351Z,2.97
2022-11-09T17:11:17.601Z,3.42
2022-11-09T17:13:46.251Z,2.30
2022-11-09T17:16:20.430Z,4.38
2022-11-09T17:18:49.246Z,3.38
2022-11-09T17:21:18.500Z,2.55
2022-11-09T17:23:48.320Z,2.45
2022-11-09T17:26:22.505Z,2.90
2022-11-09T17:28:52.112Z,2.38
2022-11-09T17:31:27.151Z,2.13
2022-11-09T17:34:01.070Z,2.63
2022-11-09T17:37:02.417Z,2.30
2022-11-09T17:39:34.695Z,2.28
2022-11-09T17:42:15.832Z,2.53
2022-11-09T17:47:56.971Z,2.08
2022-11-09T17:50:27.306Z,3.08
2022-11-09T17:53:01.073Z,4.43
2022-11-09T17:55:31.233Z,2.92
2022-11-09T17:58:00.271Z,3.58
2022-11-09T18:03:37.998Z,2.72
2022-11-09T18:06:12.718Z,3.22
2022-11-09T18:08:42.561Z,3.10
2022-11-09T18:11:13.193Z,2.72
2022-11-09T18:13:45.433Z,2.35
2022-11-09T18:16:17.827Z,3.00
2022-11-09T18:18:48.950Z,2.17
2022-11-09T18:21:20.255Z,3.20
2022-11-09T18:23:49.518Z,3.42
2022-11-09T18:26:19.912Z,3.20
2022-11-09T18:28:51.062Z,3.40
2022-11-09T18:31:19.808Z,3.70
2022-11-09T18:33:50.945Z,3.30
2022-11-09T18:36:22.064Z,2.28
2022-11-09T18:38:52.946Z,2.95
2022-11-09T18:41:24.835Z,2.75
2022-11-09T18:43:58.545Z,3.28
2022-11-09T18:52:21.673Z,2.53
2022-11-09T18:55:19.981Z,2.45
2022-11-09T18:58:08.403Z,2.83
2022-11-09T19:00:37.139Z,2.63
2022-11-09T19:03:08.336Z,3.47
2022-11-09T19:05:54.434Z,2.83
2022-11-09T19:08:46.399Z,2.70
2022-11-09T19:11:22.351Z,2.80
2022-11-09T19:13:57.853Z,2.33
2022-11-09T19:16:53.235Z,1.98
2022-11-09T19:19:32.505Z,2.67
2022-11-09T19:22:12.474Z,2.22
2022-11-09T19:24:43.354Z,2.42
2022-11-09T19:27:16.403Z,2.50
2022-11-09T19:29:47.275Z,2.42
2022-11-09T19:32:24.637Z,2.45
2022-11-09T19:34:58.574Z,2.83
2022-11-09T19:37:47.575Z,2.50
2022-11-09T19:40:27.570Z,2.45
2022-11-09T19:43:08.695Z,2.90
2022-11-09T19:48:15.859Z,2.80
2022-11-09T19:50:49.209Z,2.85
2022-11-09T19:53:20.385Z,3.22
2022-11-09T19:55:51.824Z,3.83
2022-11-09T19:58:24.182Z,3.20
2022-11-09T20:00:53.554Z,3.22
2022-11-09T20:03:22.397Z,3.33
2022-11-09T20:05:56.592Z,4.13
2022-11-09T20:08:32.639Z,3.70
2022-11-09T20:11:12.439Z,3.75
2022-11-09T20:13:44.312Z,3.83
2022-11-09T20:16:31.091Z,3.50
2022-11-09T20:19:05.731Z,4.00
2022-11-09T20:21:45.325Z,4.97
2022-11-09T20:24:30.635Z,5.05
2022-11-09T20:29:44.218Z,2.60
2022-11-09T20:32:28.340Z,3.30
2022-11-09T20:35:05.828Z,3.20
2022-11-09T20:37:49.966Z,2.50
2022-11-09T20:40:27.584Z,3.60
2022-11-09T20:43:02.004Z,3.65
2022-11-09T20:45:35.349Z,2.75
2022-11-09T20:48:31.070Z,2.95
2022-11-09T20:51:06.867Z,3.20
2022-11-09T20:53:41.082Z,2.97
2022-11-09T20:56:14.444Z,3.25
2022-11-09T20:58:49.872Z,3.78
2022-11-09T21:01:30.494Z,5.13
2022-11-09T21:04:06.417Z,4.40
2022-11-09T21:06:42.226Z,4.15
2022-11-09T21:09:12.168Z,3.75
2022-11-09T21:11:56.212Z,3.20
2022-11-09T21:14:25.658Z,3.25
2022-11-09T21:16:55.169Z,4.00
2022-11-09T21:19:24.833Z,3.78
2022-11-09T21:21:55.559Z,4.00
2022-11-09T21:24:42.348Z,3.40
2022-11-09T21:27:48.058Z,3.60
2022-11-09T21:30:19.556Z,4.35
2022-11-09T21:32:49.426Z,4.68
2022-11-09T21:35:19.332Z,3.78
2022-11-09T21:37:48.573Z,6.85
2022-11-09T21:40:18.864Z,4.72
2022-11-09T21:42:50.449Z,4.53
2022-11-09T21:45:19.208Z,5.38
2022-11-09T21:47:48.155Z,3.92
2022-11-09T21:50:18.699Z,4.40
2022-11-09T21:52:51.262Z,4.15
2022-11-09T21:55:22.303Z,4.28
2022-11-09T21:57:55.562Z,4.03
2022-11-09T22:00:26.611Z,3.75
2022-11-09T22:02:56.995Z,3.85
2022-11-09T22:05:25.870Z,4.00
2022-11-09T22:07:55.632Z,3.63
2022-11-09T22:10:25.511Z,4.45
2022-11-09T22:13:19.827Z,3.90
2022-11-09T22:16:05.682Z,3.72
2022-11-09T22:18:52.217Z,4.68
2022-11-09T22:21:21.772Z,3.97
2022-11-09T22:23:53.177Z,4.72
2022-11-09T22:26:22.177Z,5.10
2022-11-09T22:28:52.424Z,3.72
2022-11-09T22:31:22.811Z,3.90
2022-11-09T22:33:51.850Z,3.75
2022-11-09T22:36:23.406Z,3.55
2022-11-09T22:38:53.190Z,3.90
2022-11-09T22:41:24.747Z,3.67
2022-11-09T22:43:56.677Z,3.75
2022-11-09T22:46:25.484Z,3.70
2022-11-09T22:48:54.574Z,4.45
2022-11-09T22:51:24.189Z,3.08
2022-11-09T22:53:54.228Z,4.80
2022-11-09T22:56:23.209Z,4.60
2022-11-09T22:58:54.930Z,5.00
2022-11-09T23:01:23.477Z,4.10
2022-11-09T23:03:52.626Z,4.60
2022-11-09T23:06:24.471Z,4.80
2022-11-09T23:08:55.598Z,4.35
2022-11-09T23:11:27.078Z,4.55
2022-11-09T23:13:58.336Z,4.25
2022-11-09T23:16:28.050Z,6.38
2022-11-09T23:18:55.829Z,5.22
2022-11-09T23:21:28.352Z,4.82
2022-11-09T23:23:59.920Z,4.38
2022-11-09T23:26:30.970Z,4.65
2022-11-09T23:29:05.024Z,5.30
2022-11-09T23:31:34.088Z,5.72
2022-11-09T23:34:08.809Z,5.78
2022-11-09T23:36:40.326Z,6.20
2022-11-09T23:39:09.241Z,5.00
2022-11-09T23:41:37.495Z,4.95
2022-11-09T23:44:08.959Z,3.75
2022-11-09T23:46:38.027Z,4.05
2022-11-09T23:49:06.856Z,3.80
2022-11-09T23:51:36.459Z,3.65
2022-11-09T23:54:05.834Z,3.72
2022-11-09T23:56:34.789Z,2.70
2022-11-09T23:59:04.567Z,4.10
